This is the latest recevied weather packets stored in our database for station/object W6SNO-1. If no packets are shown the sender has not sent any weather packets the latest 10 day(s).
| Time | Temp. | Humidity | Pressure | Rain* | Wind** | Luminosity | Snow |
|---|---|---|---|---|---|---|---|
| 1787372585 | 17.22° C | 82% | 1017.9 hPa | 0 mm | - | 0 W/m² | - |
| 1787372281 | 17.22° C | 82% | 1017.9 hPa | 0 mm | - | 0 W/m² | - |
| 1787371977 | 17.22° C | 81% | 1018 hPa | 0 mm | - | 0 W/m² | - |
| 1787371673 | 17.78° C | 81% | 1017.8 hPa | 0 mm | - | 0 W/m² | - |
| 1787371368 | 17.78° C | 81% | 1017.7 hPa | 0 mm | - | 0 W/m² | - |
| 1787369253 | 18.89° C | 77% | 1017.2 hPa | 0 mm | - | 0 W/m² | - |
| 1787368949 | 18.89° C | 77% | 1017.1 hPa | 0 mm | - | 0 W/m² | - |
| 1787366828 | 20° C | 74% | 1016.7 hPa | 0 mm | - | 7 W/m² | - |
| 1787366523 | 20° C | 74% | 1016.8 hPa | 0 mm | - | 7 W/m² | - |
| 1787366218 | 20° C | 73% | 1016.7 hPa | 0 mm | - | 9 W/m² | - |
| 1787365914 | 20.56° C | 71% | 1016.5 hPa | 0 mm | - | 14 W/m² | - |
| 1787365609 | 20.56° C | 71% | 1016.6 hPa | 0 mm | - | 14 W/m² | - |
| 1787363481 | 21.67° C | 66% | 1016.5 hPa | 0 mm | - | 36 W/m² | - |
| 1787363181 | 21.67° C | 66% | 1016.5 hPa | 0 mm | - | 36 W/m² | - |
| 1787362876 | 21.67° C | 67% | 1016.5 hPa | 0 mm | - | 39 W/m² | - |
| 1787362572 | 21.67° C | 67% | 1016.4 hPa | 0 mm | - | 38 W/m² | - |
| 1787362268 | 21.67° C | 67% | 1016.6 hPa | 0 mm | - | 37 W/m² | - |
| 1787361967 | 21.67° C | 67% | 1016.5 hPa | 0 mm | - | 43 W/m² | - |
| 1787361667 | 22.22° C | 65% | 1016.3 hPa | 0 mm | - | 56 W/m² | - |
| 1787361361 | 22.22° C | 65% | 1016.5 hPa | 0 mm | - | 68 W/m² | - |
| 1787361056 | 22.78° C | 64% | 1016.2 hPa | 0 mm | - | 60 W/m² | - |
| 1787360751 | 22.78° C | 64% | 1016.4 hPa | 0 mm | - | 51 W/m² | - |
| 1787360446 | 22.78° C | 63% | 1016.4 hPa | 0 mm | - | 61 W/m² | - |
| 1787360146 | 23.33° C | 63% | 1016.2 hPa | 0 mm | - | 131 W/m² | - |
| 1787359842 | 23.33° C | 62% | 1016.5 hPa | 0 mm | - | 125 W/m² | - |
* Rain latest hour (hover to see other rain measurements)
** Current wind speed in m/s (hover to see current wind gust speed)